createdAt,value
2019-05-21T00:02:25.004Z,95990.69
2019-05-21T00:04:55.319Z,95988.97
2019-05-21T00:07:25.950Z,95987.28
2019-05-21T00:09:56.376Z,95985.80
2019-05-21T00:12:26.662Z,95984.95
2019-05-21T00:14:56.914Z,95984.46
2019-05-21T00:17:27.122Z,95981.06
2019-05-21T00:19:57.380Z,95978.86
2019-05-21T00:22:27.648Z,95975.55
2019-05-21T00:24:57.910Z,95975.55
2019-05-21T00:27:28.185Z,95978.23
2019-05-21T00:30:34.968Z,95976.55
2019-05-21T00:33:41.431Z,95979.58
2019-05-21T00:37:07.740Z,95982.26
2019-05-21T00:40:17.415Z,95973.87
2019-05-21T00:42:47.667Z,95978.86
2019-05-21T00:45:17.964Z,95985.56
2019-05-21T00:47:48.753Z,95979.86
2019-05-21T00:50:19.017Z,95977.03
2019-05-21T00:52:49.337Z,95973.87
2019-05-21T00:55:19.599Z,95976.06
2019-05-21T00:57:49.883Z,95976.06
2019-05-21T01:00:20.195Z,95976.06
2019-05-21T01:02:50.420Z,95974.21
2019-05-21T01:05:20.673Z,95970.19
2019-05-21T01:07:50.965Z,95974.73
2019-05-21T01:10:21.259Z,95974.21
2019-05-21T01:12:49.896Z,95974.21
2019-05-21T01:15:18.481Z,95971.19
2019-05-21T01:17:49.284Z,95975.20
2019-05-21T01:20:19.496Z,95964.95
2019-05-21T01:22:49.724Z,95973.87
2019-05-21T01:25:19.976Z,95969.47
2019-05-21T01:27:50.660Z,95970.95
2019-05-21T01:30:20.989Z,95967.92
2019-05-21T01:32:51.254Z,95971.43
2019-05-21T01:35:21.532Z,95971.95
2019-05-21T01:37:51.962Z,95980.00
2019-05-21T01:40:22.225Z,95982.30
2019-05-21T01:42:52.513Z,95985.84
2019-05-21T01:45:22.653Z,95988.88
2019-05-21T01:47:52.985Z,95987.19
2019-05-21T01:50:23.267Z,95995.23
2019-05-21T01:52:53.491Z,95992.89
2019-05-21T01:55:24.387Z,96000.46
2019-05-21T01:57:54.575Z,96001.32
2019-05-21T02:00:24.800Z,95999.13
2019-05-21T02:02:55.127Z,95996.44
2019-05-21T02:05:33.184Z,95992.27
2019-05-21T02:07:57.434Z,96001.32
2019-05-21T02:10:27.730Z,95997.64
2019-05-21T02:12:58.238Z,96000.46
2019-05-21T02:15:28.475Z,96007.03
2019-05-21T02:17:58.727Z,96006.69
2019-05-21T02:20:29.020Z,96012.05
2019-05-21T02:22:59.407Z,96010.34
2019-05-21T02:25:29.635Z,96012.05
2019-05-21T02:27:59.993Z,96008.17
2019-05-21T02:30:30.317Z,96005.48
2019-05-21T02:33:00.633Z,96016.22
2019-05-21T02:35:30.961Z,96016.08
2019-05-21T02:38:02.193Z,96021.92
2019-05-21T02:40:32.345Z,96012.91
2019-05-21T02:43:06.836Z,96019.73
2019-05-21T02:45:37.156Z,96014.87
2019-05-21T02:48:09.294Z,96019.25
2019-05-21T02:50:40.153Z,96029.98
2019-05-21T02:53:10.476Z,96028.16
2019-05-21T02:55:40.669Z,96025.47
2019-05-21T02:58:10.854Z,96024.61
2019-05-21T03:01:02.783Z,96024.27
2019-05-21T03:03:34.000Z,96027.30
2019-05-21T03:06:13.830Z,96028.50
2019-05-21T03:08:37.217Z,96026.44
2019-05-21T03:11:07.477Z,96025.09
2019-05-21T03:13:37.835Z,96027.30
2019-05-21T03:16:08.412Z,96033.52
2019-05-21T03:18:38.637Z,96037.89
2019-05-21T03:21:09.017Z,96037.55
2019-05-21T03:23:39.310Z,96037.55
2019-05-21T03:26:09.556Z,96035.34
2019-05-21T03:28:39.817Z,96034.00
2019-05-21T03:31:09.994Z,96034.86
2019-05-21T03:33:40.330Z,96035.34
2019-05-21T03:36:10.515Z,96044.73
2019-05-21T03:38:40.833Z,96045.94
2019-05-21T03:41:12.106Z,96049.62
2019-05-21T03:43:42.406Z,96049.48
2019-05-21T03:46:12.652Z,96043.25
2019-05-21T03:48:42.903Z,96053.02
2019-05-21T03:51:13.191Z,96052.16
2019-05-21T03:53:43.444Z,96057.53
2019-05-21T03:56:13.705Z,96058.88
2019-05-21T03:58:44.020Z,96064.23
2019-05-21T04:01:14.378Z,96057.53
2019-05-21T04:03:44.623Z,96062.42
2019-05-21T04:06:14.858Z,96060.22
2019-05-21T04:08:46.164Z,96066.92
2019-05-21T04:11:16.388Z,96060.70
2019-05-21T04:13:46.587Z,96066.06
2019-05-21T04:16:28.928Z,96064.86
2019-05-21T04:19:05.723Z,96071.22
2019-05-21T04:21:37.079Z,96067.20
2019-05-21T04:24:08.954Z,96068.88
2019-05-21T04:26:39.316Z,96069.36
2019-05-21T04:29:09.745Z,96065.23
2019-05-21T04:31:40.039Z,96067.06
2019-05-21T04:34:10.740Z,96059.49
2019-05-21T04:36:41.084Z,96062.89
2019-05-21T04:39:11.289Z,96062.42
2019-05-21T04:41:41.528Z,96062.76
2019-05-21T04:44:11.698Z,96060.94
2019-05-21T04:46:41.963Z,96066.30
2019-05-21T04:49:12.693Z,96065.82
2019-05-21T04:51:42.863Z,96064.48
2019-05-21T04:54:13.110Z,96055.57
2019-05-21T04:56:43.361Z,96056.77
2019-05-21T04:59:13.617Z,96056.77
2019-05-21T05:01:43.943Z,96053.61
2019-05-21T05:04:14.227Z,96053.98
2019-05-21T05:06:44.560Z,96053.47
2019-05-21T05:09:14.713Z,96050.92
2019-05-21T05:11:45.027Z,96050.06
2019-05-21T05:14:15.311Z,96053.84
2019-05-21T05:16:45.572Z,96049.82
2019-05-21T05:19:15.901Z,96056.05
2019-05-21T05:21:46.130Z,96059.70
2019-05-21T05:24:16.495Z,96053.98
2019-05-21T05:26:46.764Z,96055.43
2019-05-21T05:29:17.051Z,96052.75
2019-05-21T05:31:47.295Z,96052.75
2019-05-21T05:34:18.552Z,96054.81
2019-05-21T05:36:48.878Z,96054.81
2019-05-21T05:39:19.201Z,96053.84
2019-05-21T05:41:49.482Z,96052.51
2019-05-21T05:44:19.637Z,96056.63
2019-05-21T05:46:49.932Z,96055.77
2019-05-21T05:49:25.278Z,96062.14
2019-05-21T05:51:55.581Z,96061.00
2019-05-21T05:54:25.784Z,96063.06
2019-05-21T05:56:56.132Z,96063.06
2019-05-21T05:59:26.434Z,96066.13
2019-05-21T06:01:56.951Z,96065.27
2019-05-21T06:04:30.427Z,96065.27
2019-05-21T06:06:59.081Z,96071.02
2019-05-21T06:09:29.623Z,96069.05
2019-05-21T06:11:59.839Z,96084.64
2019-05-21T06:14:30.237Z,96084.19
2019-05-21T06:17:01.462Z,96081.13
2019-05-21T06:19:31.811Z,96080.72
2019-05-21T06:22:02.215Z,96087.42
2019-05-21T06:24:32.479Z,96088.63
2019-05-21T06:27:02.696Z,96083.50
2019-05-21T06:29:32.956Z,96090.08
2019-05-21T06:32:03.130Z,96092.28
2019-05-21T06:34:33.464Z,96093.72
2019-05-21T06:37:03.838Z,96089.73
2019-05-21T06:39:34.022Z,96099.26
2019-05-21T06:42:04.525Z,96098.53
2019-05-21T06:44:34.785Z,96105.73
2019-05-21T06:47:04.947Z,96104.03
2019-05-21T06:49:36.308Z,96104.52
2019-05-21T06:52:06.641Z,96109.51
2019-05-21T06:54:37.024Z,96108.06
2019-05-21T06:57:07.295Z,96103.42
2019-05-21T06:59:37.693Z,96104.87
2019-05-21T07:02:07.955Z,96107.31
2019-05-21T07:04:38.185Z,96112.81
2019-05-21T07:07:08.484Z,96112.30
2019-05-21T07:09:38.872Z,96116.45
2019-05-21T07:12:09.148Z,96125.84
2019-05-21T07:14:39.380Z,96118.28
2019-05-21T07:17:09.877Z,96125.44
2019-05-21T07:19:40.227Z,96121.68
2019-05-21T07:22:13.076Z,96122.30
2019-05-21T07:24:42.543Z,96122.57
2019-05-21T07:27:12.735Z,96121.34
2019-05-21T07:29:43.937Z,96129.52
2019-05-21T07:32:14.230Z,96125.60
2019-05-21T07:34:44.573Z,96129.95
2019-05-21T07:37:14.882Z,96135.81
2019-05-21T07:39:45.253Z,96140.08
2019-05-21T07:42:15.526Z,96140.92
2019-05-21T07:44:45.812Z,96144.69
2019-05-21T07:47:17.600Z,96143.84
2019-05-21T07:49:47.955Z,96148.08
2019-05-21T07:52:18.453Z,96150.14
2019-05-21T07:54:48.721Z,96145.75
2019-05-21T07:57:18.978Z,96151.50
2019-05-21T07:59:49.303Z,96158.69
2019-05-21T08:02:19.538Z,96156.14
2019-05-21T08:04:49.798Z,96159.64
2019-05-21T08:07:20.181Z,96161.37
2019-05-21T08:09:50.518Z,96157.80
2019-05-21T08:12:37.283Z,96155.39
2019-05-21T08:14:52.734Z,96163.69
2019-05-21T08:17:22.967Z,96162.39
2019-05-21T08:19:53.300Z,96166.38
2019-05-21T08:22:23.547Z,96164.31
2019-05-21T08:24:53.915Z,96166.17
2019-05-21T08:27:24.162Z,96167.13
2019-05-21T08:29:54.323Z,96170.41
2019-05-21T08:32:24.671Z,96174.69
2019-05-21T08:34:54.957Z,96172.85
2019-05-21T08:37:25.143Z,96178.59
2019-05-21T08:39:55.800Z,96183.36
2019-05-21T08:42:26.054Z,96186.26
2019-05-21T08:44:56.306Z,96177.85
2019-05-21T08:47:26.572Z,96194.94
2019-05-21T08:49:56.930Z,96191.88
2019-05-21T08:52:27.265Z,96202.72
2019-05-21T08:54:57.632Z,96196.74
2019-05-21T08:57:27.902Z,96192.49
2019-05-21T08:59:58.269Z,96196.00
2019-05-21T09:02:28.503Z,96203.47
2019-05-21T09:04:58.858Z,96194.94
2019-05-21T09:07:29.249Z,96198.83
2019-05-21T09:09:59.625Z,96197.73
2019-05-21T09:12:29.969Z,96201.28
2019-05-21T09:15:00.189Z,96197.73
2019-05-21T09:17:30.539Z,96199.81
2019-05-21T09:20:00.809Z,96202.97
2019-05-21T09:22:31.351Z,96197.61
2019-05-21T09:25:01.767Z,96203.83
2019-05-21T09:27:32.192Z,96206.17
2019-05-21T09:30:02.544Z,96194.92
2019-05-21T09:32:32.844Z,96205.16
2019-05-21T09:35:03.288Z,96204.31
2019-05-21T09:37:33.541Z,96197.47
2019-05-21T09:40:04.448Z,96198.68
2019-05-21T09:42:34.827Z,96206.84
2019-05-21T09:45:05.440Z,96203.68
2019-05-21T09:47:35.952Z,96201.24
2019-05-21T09:50:06.825Z,96210.37
2019-05-21T09:52:38.120Z,96207.55
2019-05-21T09:55:08.708Z,96212.91
2019-05-21T09:57:55.275Z,96206.94
2019-05-21T10:00:46.924Z,96208.39
2019-05-21T10:03:18.905Z,96201.20
2019-05-21T10:05:49.201Z,96202.41
2019-05-21T10:08:19.577Z,96202.79
2019-05-21T10:10:49.858Z,96206.20
2019-05-21T10:13:20.173Z,96206.55
2019-05-21T10:15:50.553Z,96211.43
2019-05-21T10:18:20.771Z,96213.25
2019-05-21T10:20:50.997Z,96209.12
2019-05-21T10:23:21.841Z,96213.63
2019-05-21T10:25:52.117Z,96218.14
2019-05-21T10:28:24.117Z,96219.48
2019-05-21T10:30:54.425Z,96222.91
2019-05-21T10:33:26.480Z,96217.06
2019-05-21T10:35:56.706Z,96218.16
2019-05-21T10:38:27.007Z,96223.05
2019-05-21T10:40:57.218Z,96228.52
2019-05-21T10:43:27.883Z,96225.22
2019-05-21T10:45:58.210Z,96222.05
2019-05-21T10:48:28.601Z,96227.42
2019-05-21T10:50:59.000Z,96232.31
2019-05-21T10:53:29.253Z,96231.58
2019-05-21T10:55:59.510Z,96232.31
2019-05-21T10:58:29.854Z,96232.79
2019-05-21T11:01:10.205Z,96239.15
2019-05-21T11:03:58.442Z,96245.13
2019-05-21T11:06:28.746Z,96242.92
2019-05-21T11:08:59.022Z,96247.55
2019-05-21T11:11:29.302Z,96258.28
2019-05-21T11:13:59.652Z,96256.70
2019-05-21T11:16:30.051Z,96256.20
2019-05-21T11:19:00.316Z,96255.36
2019-05-21T11:21:30.669Z,96254.85
2019-05-21T11:24:01.083Z,96261.22
2019-05-21T11:26:31.720Z,96259.02
2019-05-21T11:29:02.208Z,96257.19
2019-05-21T11:31:33.451Z,96255.36
2019-05-21T11:34:03.876Z,96259.98
2019-05-21T11:36:35.056Z,96262.19
2019-05-21T11:39:07.397Z,96259.37
2019-05-21T11:41:40.509Z,96264.26
2019-05-21T11:44:10.915Z,96275.00
2019-05-21T11:46:41.521Z,96275.61
2019-05-21T11:49:12.418Z,96272.20
2019-05-21T11:51:42.840Z,96281.23
2019-05-21T11:54:13.345Z,96274.41
2019-05-21T11:56:43.744Z,96278.17
2019-05-21T11:59:14.232Z,96283.30
2019-05-21T12:01:45.246Z,96284.63
2019-05-21T12:04:15.887Z,96282.81
2019-05-21T12:06:46.173Z,96286.84
2019-05-21T12:09:17.197Z,96291.34
2019-05-21T12:11:47.611Z,96284.29
2019-05-21T12:14:18.740Z,96287.58
2019-05-21T12:16:49.354Z,96286.59
2019-05-21T12:19:20.133Z,96289.17
2019-05-21T12:21:50.954Z,96288.31
2019-05-21T12:24:21.589Z,96289.05
2019-05-21T12:26:52.070Z,96294.42
2019-05-21T12:29:22.469Z,96293.69
2019-05-21T12:31:52.719Z,96294.78
2019-05-21T12:34:21.817Z,96292.45
2019-05-21T12:36:50.395Z,96294.40
2019-05-21T12:39:19.380Z,96298.19
2019-05-21T12:41:47.937Z,96296.11
2019-05-21T12:44:20.933Z,96303.20
2019-05-21T12:46:51.471Z,96308.78
2019-05-21T12:49:21.732Z,96313.92
2019-05-21T12:51:52.317Z,96313.80
2019-05-21T12:54:22.617Z,96315.00
2019-05-21T12:56:54.270Z,96317.59
2019-05-21T12:59:24.977Z,96314.91
2019-05-21T13:01:55.791Z,96317.94
2019-05-21T13:04:26.152Z,96322.83
2019-05-21T13:06:56.419Z,96314.30
2019-05-21T13:09:32.694Z,96322.44
2019-05-21T13:11:58.949Z,96319.41
2019-05-21T13:14:29.234Z,96325.64
2019-05-21T13:16:59.396Z,96326.12
2019-05-21T13:19:30.526Z,96322.22
2019-05-21T13:22:01.367Z,96329.41
2019-05-21T13:24:31.681Z,96326.73
2019-05-21T13:27:02.013Z,96330.14
2019-05-21T13:29:33.756Z,96334.04
2019-05-21T13:32:04.062Z,96336.23
2019-05-21T13:34:34.312Z,96339.27
2019-05-21T13:37:04.527Z,96337.94
2019-05-21T13:39:48.782Z,96342.09
2019-05-21T13:42:08.231Z,96340.49
2019-05-21T13:44:38.569Z,96342.83
2019-05-21T13:47:08.781Z,96344.05
2019-05-21T13:49:39.420Z,96346.24
2019-05-21T13:52:10.163Z,96345.63
2019-05-21T13:54:42.137Z,96343.91
2019-05-21T13:57:12.627Z,96343.18
2019-05-21T13:59:43.496Z,96342.22
2019-05-21T14:02:14.410Z,96346.38
2019-05-21T14:04:45.238Z,96344.65
2019-05-21T14:07:17.080Z,96345.13
2019-05-21T14:09:47.668Z,96342.70
2019-05-21T14:12:18.841Z,96345.01
2019-05-21T14:14:50.214Z,96349.89
2019-05-21T14:17:21.119Z,96345.01
2019-05-21T14:19:51.834Z,96352.95
2019-05-21T14:22:22.581Z,96352.95
2019-05-21T14:24:52.811Z,96352.22
2019-05-21T14:27:24.248Z,96353.18
2019-05-21T14:29:56.223Z,96355.64
2019-05-21T14:32:35.303Z,96355.13
2019-05-21T14:35:06.699Z,96361.62
2019-05-21T14:37:37.056Z,96365.13
2019-05-21T14:40:08.433Z,96363.06
2019-05-21T14:42:38.920Z,96364.91
2019-05-21T14:45:10.405Z,96367.59
2019-05-21T14:47:41.524Z,96368.33
2019-05-21T14:50:11.863Z,96373.09
2019-05-21T14:52:42.473Z,96371.23
2019-05-21T14:55:13.456Z,96378.45
2019-05-21T14:57:44.246Z,96376.25
2019-05-21T15:00:23.618Z,96371.75
2019-05-21T15:02:54.101Z,96378.80
2019-05-21T15:05:24.982Z,96380.27
2019-05-21T15:07:55.295Z,96378.93
2019-05-21T15:10:25.673Z,96376.25
2019-05-21T15:12:56.015Z,96375.26
2019-05-21T15:15:32.493Z,96377.11
2019-05-21T15:18:02.779Z,96375.26
2019-05-21T15:20:52.218Z,96371.23
2019-05-21T15:23:24.506Z,96372.70
2019-05-21T15:25:56.436Z,96374.52
2019-05-21T15:28:27.677Z,96370.50
2019-05-21T15:30:58.695Z,96366.47
2019-05-21T15:33:30.298Z,96368.80
2019-05-21T15:36:00.656Z,96367.84
2019-05-21T15:38:48.459Z,96366.98
2019-05-21T15:41:10.479Z,96368.33
2019-05-21T15:43:36.112Z,96365.77
2019-05-21T15:46:27.329Z,96367.11
2019-05-21T15:48:57.654Z,96369.41
2019-05-21T15:51:27.815Z,96365.86
2019-05-21T15:53:58.067Z,96375.26
2019-05-21T15:56:28.800Z,96365.86
2019-05-21T15:58:59.054Z,96364.05
2019-05-21T16:01:30.517Z,96366.37
2019-05-21T16:04:00.748Z,96365.99
2019-05-21T16:06:31.026Z,96357.08
2019-05-21T16:09:01.242Z,96361.97
2019-05-21T16:11:32.798Z,96360.76
2019-05-21T16:14:03.324Z,96357.21
2019-05-21T16:16:33.667Z,96358.20
2019-05-21T16:19:03.988Z,96354.18
2019-05-21T16:21:34.278Z,96357.34
2019-05-21T16:24:04.559Z,96360.03
2019-05-21T16:26:35.302Z,96356.95
2019-05-21T16:29:07.030Z,96362.33
2019-05-21T16:31:37.681Z,96359.64
2019-05-21T16:34:08.138Z,96366.35
2019-05-21T16:36:38.466Z,96358.81
2019-05-21T16:39:09.199Z,96366.00
2019-05-21T16:41:44.857Z,96357.56
2019-05-21T16:44:11.720Z,96369.64
2019-05-21T16:46:42.788Z,96368.30
2019-05-21T16:49:13.995Z,96360.25
2019-05-21T16:51:44.798Z,96366.13
2019-05-21T16:54:15.751Z,96365.27
2019-05-21T16:56:46.350Z,96366.13
2019-05-21T16:59:17.169Z,96364.79
2019-05-21T17:01:47.413Z,96364.89
2019-05-21T17:04:17.787Z,96363.92
2019-05-21T17:06:48.218Z,96360.52
2019-05-21T17:09:19.096Z,96366.73
2019-05-21T17:11:59.381Z,96369.90
2019-05-21T17:14:23.054Z,96370.77
2019-05-21T17:16:53.813Z,96372.58
2019-05-21T17:19:24.149Z,96368.69
2019-05-21T17:21:54.362Z,96365.49
2019-05-21T17:24:25.710Z,96364.77
2019-05-21T17:26:56.202Z,96368.78
2019-05-21T17:29:26.482Z,96369.64
2019-05-21T17:31:56.955Z,96365.75
2019-05-21T17:34:27.208Z,96369.30
2019-05-21T17:36:57.576Z,96370.12
2019-05-21T17:39:27.924Z,96371.12
2019-05-21T17:41:58.285Z,96371.12
2019-05-21T17:44:29.465Z,96372.45
2019-05-21T17:46:59.754Z,96370.64
2019-05-21T17:49:29.972Z,96370.25
2019-05-21T17:52:01.272Z,96373.41
2019-05-21T17:54:31.556Z,96371.72
2019-05-21T17:57:01.784Z,96376.09
2019-05-21T17:59:32.188Z,96382.80
2019-05-21T18:02:04.130Z,96381.98
2019-05-21T18:04:34.662Z,96387.82
2019-05-21T18:07:05.910Z,96385.14
2019-05-21T18:09:37.174Z,96386.48
2019-05-21T18:12:08.693Z,96389.29
2019-05-21T18:14:39.515Z,96389.64
2019-05-21T18:17:13.637Z,96386.61
2019-05-21T18:19:44.327Z,96391.11
2019-05-21T18:22:18.334Z,96391.46
2019-05-21T18:24:49.756Z,96399.16
2019-05-21T18:27:20.285Z,96403.66
2019-05-21T18:29:50.628Z,96403.78
2019-05-21T18:32:20.781Z,96409.16
2019-05-21T18:34:52.016Z,96407.42
2019-05-21T18:37:22.722Z,96418.67
2019-05-21T18:39:53.082Z,96420.84
2019-05-21T18:42:23.408Z,96417.80
2019-05-21T18:44:53.804Z,96423.17
2019-05-21T18:47:24.182Z,96429.88
2019-05-21T18:49:54.439Z,96439.62
2019-05-21T18:52:24.891Z,96435.98
2019-05-21T18:54:56.187Z,96436.94
2019-05-21T18:57:26.473Z,96443.64
2019-05-21T18:59:56.758Z,96446.32
2019-05-21T19:02:27.151Z,96448.05
2019-05-21T19:04:57.749Z,96453.89
2019-05-21T19:07:28.129Z,96455.71
2019-05-21T19:10:00.907Z,96457.56
2019-05-21T19:12:37.970Z,96471.80
2019-05-21T19:15:03.258Z,96470.11
2019-05-21T19:17:35.879Z,96471.80
2019-05-21T19:20:09.755Z,96477.17
2019-05-21T19:22:40.151Z,96476.22
2019-05-21T19:25:10.699Z,96477.08
2019-05-21T19:27:41.214Z,96484.39
2019-05-21T19:30:11.737Z,96487.90
2019-05-21T19:32:42.298Z,96485.60
2019-05-21T19:35:12.976Z,96491.32
2019-05-21T19:37:43.554Z,96494.99
2019-05-21T19:40:13.839Z,96495.86
2019-05-21T19:42:54.254Z,96501.95
2019-05-21T19:45:18.876Z,96499.38
2019-05-21T19:47:49.259Z,96503.78
2019-05-21T19:50:19.471Z,96505.47
2019-05-21T19:52:50.063Z,96512.56
2019-05-21T19:55:20.369Z,96509.87
2019-05-21T19:57:51.686Z,96517.06
2019-05-21T20:00:21.987Z,96516.80
2019-05-21T20:03:01.044Z,96516.80
2019-05-21T20:05:31.436Z,96526.70
2019-05-21T20:08:01.857Z,96522.42
2019-05-21T20:10:34.267Z,96522.42
2019-05-21T20:13:04.988Z,96521.81
2019-05-21T20:15:35.623Z,96516.06
2019-05-21T20:18:07.709Z,96521.81
2019-05-21T20:20:41.873Z,96522.30
2019-05-21T20:23:13.877Z,96515.72
2019-05-21T20:25:56.000Z,96515.72
2019-05-21T20:28:17.339Z,96518.27
2019-05-21T20:30:48.857Z,96510.34
2019-05-21T20:33:19.160Z,96521.81
2019-05-21T20:35:49.700Z,96519.61
2019-05-21T20:38:20.276Z,96510.22
2019-05-21T20:40:50.668Z,96515.98
2019-05-21T20:43:21.248Z,96513.29
2019-05-21T20:45:51.838Z,96517.80
2019-05-21T20:48:26.299Z,96510.09
2019-05-21T20:50:56.696Z,96513.29
2019-05-21T20:53:27.301Z,96513.29
2019-05-21T20:55:57.892Z,96520.35
2019-05-21T20:58:28.440Z,96522.55
2019-05-21T21:01:07.690Z,96519.39
2019-05-21T21:03:39.774Z,96522.91
2019-05-21T21:06:10.899Z,96519.75
2019-05-21T21:08:41.211Z,96517.45
2019-05-21T21:11:13.378Z,96519.27
2019-05-21T21:13:44.580Z,96524.99
2019-05-21T21:16:15.061Z,96537.80
2019-05-21T21:18:46.115Z,96539.66
2019-05-21T21:21:16.761Z,96542.21
2019-05-21T21:23:49.108Z,96542.21
2019-05-21T21:26:19.502Z,96545.25
2019-05-21T21:28:49.777Z,96543.91
2019-05-21T21:31:20.242Z,96546.59
2019-05-21T21:33:50.587Z,96545.63
2019-05-21T21:36:21.232Z,96540.27
2019-05-21T21:38:51.396Z,96541.61
2019-05-21T21:41:21.813Z,96543.81
2019-05-21T21:43:52.483Z,96547.33
2019-05-21T21:46:22.818Z,96545.89
2019-05-21T21:48:53.134Z,96544.64
2019-05-21T21:51:36.979Z,96542.34
2019-05-21T21:54:36.090Z,96547.72
2019-05-21T21:57:21.701Z,96545.03
2019-05-21T21:59:58.712Z,96547.84
2019-05-21T22:02:39.315Z,96551.00
2019-05-21T22:05:18.142Z,96549.40
2019-05-21T22:07:58.623Z,96546.84
2019-05-21T22:10:30.531Z,96538.79
2019-05-21T22:13:26.994Z,96544.63
2019-05-21T22:16:00.155Z,96541.95
2019-05-21T22:18:30.565Z,96541.09
2019-05-21T22:21:01.344Z,96541.47
2019-05-21T22:23:31.740Z,96545.11
2019-05-21T22:26:02.853Z,96541.09
2019-05-21T22:28:33.206Z,96541.59
2019-05-21T22:31:03.710Z,96541.09
2019-05-21T22:33:34.233Z,96534.89
2019-05-21T22:36:04.823Z,96533.91
2019-05-21T22:38:35.180Z,96528.66
2019-05-21T22:41:05.553Z,96531.82
2019-05-21T22:43:35.867Z,96528.66
2019-05-21T22:46:06.075Z,96534.38
2019-05-21T22:48:37.476Z,96533.55
2019-05-21T22:51:08.909Z,96534.38
2019-05-21T22:53:39.843Z,96536.71
2019-05-21T22:56:10.125Z,96540.25
2019-05-21T22:58:41.492Z,96530.36
2019-05-21T23:01:12.446Z,96537.06
2019-05-21T23:03:42.806Z,96538.91
2019-05-21T23:06:13.163Z,96545.50
2019-05-21T23:08:45.064Z,96544.28
2019-05-21T23:11:16.425Z,96544.28
2019-05-21T23:13:46.691Z,96540.73
2019-05-21T23:16:17.635Z,96540.25
2019-05-21T23:18:56.625Z,96541.21
2019-05-21T23:21:40.457Z,96546.58
2019-05-21T23:24:17.071Z,96546.22
2019-05-21T23:26:47.674Z,96546.97
2019-05-21T23:29:19.026Z,96545.63
2019-05-21T23:31:49.290Z,96537.58
2019-05-21T23:34:19.511Z,96543.29
2019-05-21T23:36:51.643Z,96537.58
2019-05-21T23:39:25.589Z,96531.22
2019-05-21T23:41:56.114Z,96542.81
2019-05-21T23:44:26.880Z,96537.06
2019-05-21T23:46:57.412Z,96528.19
2019-05-21T23:49:27.620Z,96533.04
2019-05-21T23:51:57.882Z,96537.45
2019-05-21T23:54:28.307Z,96535.63
2019-05-21T23:56:59.425Z,96537.80
2019-05-21T23:59:29.773Z,96536.46
